Aeroporto :
LOGIN :

Iscrizione | Disclaimer

   EN    FR    IT 

 










Sommario :    VFR   VFR Marginale   IFR   IFR Intensivo   IFR Molto Intensivo
Visibilità : 
Base nubi : 
>= 8 km
>= 3000ft
5 / 8 km
1000 / 3000 ft
1500m / 5 km
500 / 1000 ft
800 / 1500m
200 / 500 ft
< 800m
< 200 ft
Simboli :   Temporali  Nebbia  Neve Forte  Precipitazioni Forti  Vento > 20 kt
SIGMETs :   Varie  Temporali  Ghiacco  Turbolenza  Onda orograficha  Ceneri Vulcaniche







- Altitudine del aeroporto : 598 ft
- Codice IATA : BQH
- Carte del aeroporto


EGKB - Biggin Hill

ULTIMO METAR :
  • 202050Z 22006KT 190V250 9999 BKN012 09/07 Q1033

METARs OBSOLETI :
  • 202020Z 23007KT 190V260 9999 BKN015 10/07 Q1033
  • 201950Z 23006KT 9999 BKN015 10/07 Q1033
  • 201920Z 22006KT 190V250 9999 BKN015 10/07 Q1033
  • 201850Z 22007KT 9999 BKN015 10/08 Q1033
  • 201820Z 21006KT 9999 BKN016 10/08 Q1033

TAF TAF EGKB
Valido dal 20 a 21 ore il 20 a 23 ore UTC


202003Z 2021/2023 22006KT 9999 BKN016
BECMG 2021/2023 BKN013
PROB30
TEMPO 2021/2023 7000 BKN006
Nessun NOTAM noto per questo aeroporto.



MetMap, La meteo Aeronautica in un colpo d'occhio ! - Copyright ORBIFLY Dicembre 2007 - Disclaimer

ORBIFLY MET'MAP TEAM :

Programmazione e sviluppo : Alexandra Zaïnal
Concezione e sviluppo : Baudouin d'Aumeries
Co-Programmazione e sviluppo : Marc-Olivier Méhu
Supporto tecnico e logistico : Manuel Goepfert
Aiuto per la traduzione : Arnaldo La Scala

Contatto : metmap@orbifly.com




FONTI E CREDITI :

   NOAA